x

Dauphin Island, Al (dpia1) Weather Station

7:00am - Mon 30th Mar 2015 All times are CDT. -5 hours from GMT.

  • Wind
    10mph, 14mph gusts
  • Air Temp 67°f
  • Sea Pressure 1023mb
  • Dauphin Island, Al
  • Dauphin Island, Al

More Historic Weather Station data

Upgrade to MSW Pro to gain access to the past 30 days of data for over 8000 Wavebouys and Weather Stations around the globe.

Join Pro

Comparision Forecast

View Surf forecast
   
Mon 03/30 7:00am 10 14 mph 1023mb 67f
6:00am 11 16 mph 1022.3mb 67f
5:00am 8 11 mph 1022.2mb 67f
4:00am 9 13 mph 1022.1mb 67f
3:00am 13 15 mph 1022mb 67f
2:00am 17 21 mph 1022.1mb 67f
1:00am 17 20 mph 1022.6mb 67f
12:00am 14 17 mph 1023.6mb 67f
Sun 03/29 11:00pm 13 17 mph 1024.1mb 67f
10:00pm 14 15 mph 1024.2mb 67f
9:00pm 15 16 mph 1024.2mb 67f
8:00pm 13 15 mph 1024mb 67f
7:00pm 18 21 mph 1023.9mb 66f
6:00pm 17 18 mph 1024.2mb 65f
5:00pm 21 24 mph 1024.2mb 64f
4:00pm 20 22 mph 1024.7mb 63f
3:00pm 22 23 mph 1025.3mb 63f
2:00pm 20 22 mph 1026.1mb 62f
1:00pm 20 21 mph 1026.6mb 62f
12:00pm 20 22 mph 1027.2mb 61f
11:00am 20 22 mph 1027.6mb 60f
10:00am 20 22 mph 1027.6mb 59f
9:00am 16 18 mph 1027.6mb 54f
8:00am 18 21 mph 1027.2mb 53f
7:00am 18 20 mph 1026.9mb 51f
6:00am 20 21 mph 1025.9mb 51f
5:00am 18 21 mph 1025.2mb 52f
4:00am 17 18 mph 1024.8mb 53f
3:00am 15 18 mph 1025mb 53f
2:00am 15 18 mph 1025.6mb 54f
1:00am 18 21 mph 1025.6mb 54f
12:00am 18 21 mph 1025mb 56f
Sat 03/28 11:00pm 15 16 mph 1024.8mb 59f
10:00pm  -  1 mph 1024.8mb 59f
9:00pm 3
mph
1024.3mb 58f
8:00pm 5 6 mph 1023.3mb 57f
7:00pm 6 8 mph 1022.5mb 58f
6:00pm 5 6 mph 1022.5mb 58f
5:00pm 7 9 mph 1022.5mb 58f
4:00pm 5 7 mph 1022.6mb 57f
3:00pm 5
mph
1023.1mb 56f
2:00pm 2 3 mph 1023.6mb 55f
1:00pm 3 5 mph 1024.4mb 53f
12:00pm 9 10 mph 1025mb 52f
11:00am 10 13 mph 1024.6mb 51f
10:00am 6 8 mph 1024.8mb 50f
9:00am 8 10 mph 1024.4mb 50f
8:00am 11 15 mph 1023.7mb 50f
7:00am 10 13 mph 1023.1mb 50f
6:00am 11 14 mph 1022.4mb 51f
5:00am 14 18 mph 1021.7mb 51f
4:00am 14 15 mph 1020.9mb 52f
3:00am 16 18 mph 1020.8mb 53f
2:00am 20 22 mph 1021.1mb 55f
1:00am 22 25 mph 1020.7mb 56f
12:00am 23 26 mph 1020.3mb 57f
Fri 03/27 11:00pm 22 25 mph 1019.7mb 59f
10:00pm 21 23 mph 1019.1mb 60f
9:00pm 21 23 mph 1018mb 62f
8:00pm 21 22 mph 1016.8mb 64f
7:00pm 23 26 mph 1015.5mb 65f
6:00pm 26 29 mph 1014.7mb 66f
5:00pm 15 18 mph 1013.9mb 66f
4:00pm 14 17 mph 1014.1mb 66f
3:00pm 14 15 mph 1014.4mb 64f
2:00pm 18 21 mph 1014.8mb 62f
1:00pm 9 10 mph 1015.4mb 60f
12:00pm 10 13 mph 1015.9mb 57f
11:00am 17 21 mph 1015.3mb 55f
10:00am 20 22 mph 1015.4mb 53f
9:00am 17 22 mph 1014.9mb 52f
8:00am 22 25 mph 1014mb 53f
7:00am 23 26 mph 1013.2mb 54f
6:00am 21 23 mph 1012mb 57f
5:00am 25 30 mph 1011mb 58f
4:00am 22 25 mph 1010.7mb 61f
3:00am 21 22 mph 1010.4mb 62f
2:00am 13 16 mph 1010.4mb 67f
1:00am 8 11 mph 1010.4mb 66f
12:00am 7 13 mph 1010.8mb 67f
Thu 03/26 11:00pm 9 14 mph 1010.9mb 67f
10:00pm 7 8 mph 1010.6mb 66f
9:00pm 3 5 mph 1010.5mb 67f
8:00pm 5
mph
1010.6mb 67f
7:00pm 6 9 mph 1010.8mb 68f
6:00pm 9 13 mph 1010.3mb 68f
5:00pm 11 15 mph 1010.1mb 68f
4:00pm 10 13 mph 1009.9mb 68f
3:00pm 9 11 mph 1010.4mb 69f
2:00pm 5 6 mph 1011.1mb 69f